sensor_id;sensor_type;location;lat;lon;timestamp;temperature;humidity
9151;DHT22;4610;50.006;7.490;2022-12-11T00:01:53;-3.60;99.90
9151;DHT22;4610;50.006;7.490;2022-12-11T00:04:20;-3.60;99.90
9151;DHT22;4610;50.006;7.490;2022-12-11T00:06:47;-3.60;99.90
9151;DHT22;4610;50.006;7.490;2022-12-11T00:09:15;-3.60;99.90
9151;DHT22;4610;50.006;7.490;2022-12-11T00:11:42;-3.60;99.90
9151;DHT22;4610;50.006;7.490;2022-12-11T00:14:09;-3.60;99.90
9151;DHT22;4610;50.006;7.490;2022-12-11T00:16:36;-3.60;99.90
9151;DHT22;4610;50.006;7.490;2022-12-11T00:19:04;-3.60;99.90
9151;DHT22;4610;50.006;7.490;2022-12-11T00:21:31;-3.60;99.90
9151;DHT22;4610;50.006;7.490;2022-12-11T00:23:58;-3.50;99.90
9151;DHT22;4610;50.006;7.490;2022-12-11T00:26:25;-3.60;99.90
9151;DHT22;4610;50.006;7.490;2022-12-11T00:28:54;-3.70;99.90
9151;DHT22;4610;50.006;7.490;2022-12-11T00:31:22;-3.70;99.90
9151;DHT22;4610;50.006;7.490;2022-12-11T00:33:50;-3.80;99.90
9151;DHT22;4610;50.006;7.490;2022-12-11T00:36:20;-3.80;99.90
9151;DHT22;4610;50.006;7.490;2022-12-11T00:38:48;-3.70;99.90
9151;DHT22;4610;50.006;7.490;2022-12-11T00:41:15;-3.60;99.90
9151;DHT22;4610;50.006;7.490;2022-12-11T00:43:42;-3.60;99.90
9151;DHT22;4610;50.006;7.490;2022-12-11T00:46:10;-3.60;99.90
9151;DHT22;4610;50.006;7.490;2022-12-11T00:48:37;-3.60;99.90
9151;DHT22;4610;50.006;7.490;2022-12-11T00:51:04;-3.60;99.90
9151;DHT22;4610;50.006;7.490;2022-12-11T00:53:32;-3.60;99.90
9151;DHT22;4610;50.006;7.490;2022-12-11T00:55:59;-3.60;99.90
9151;DHT22;4610;50.006;7.490;2022-12-11T00:58:27;-3.60;99.90
9151;DHT22;4610;50.006;7.490;2022-12-11T01:00:53;-3.60;99.90
9151;DHT22;4610;50.006;7.490;2022-12-11T01:03:20;-3.50;99.90
9151;DHT22;4610;50.006;7.490;2022-12-11T01:05:51;-3.50;99.90
9151;DHT22;4610;50.006;7.490;2022-12-11T01:08:18;-3.40;99.90
9151;DHT22;4610;50.006;7.490;2022-12-11T01:10:46;-3.40;99.90
9151;DHT22;4610;50.006;7.490;2022-12-11T01:13:12;-3.30;99.90
9151;DHT22;4610;50.006;7.490;2022-12-11T01:15:41;-3.20;99.90
9151;DHT22;4610;50.006;7.490;2022-12-11T01:18:10;-3.20;99.90
9151;DHT22;4610;50.006;7.490;2022-12-11T01:20:38;-3.10;99.90
9151;DHT22;4610;50.006;7.490;2022-12-11T01:23:06;-3.00;99.90
9151;DHT22;4610;50.006;7.490;2022-12-11T01:25:34;-3.00;99.90
9151;DHT22;4610;50.006;7.490;2022-12-11T01:28:04;-2.90;99.90
9151;DHT22;4610;50.006;7.490;2022-12-11T01:30:31;-2.90;99.90
9151;DHT22;4610;50.006;7.490;2022-12-11T01:32:58;-2.80;99.90
9151;DHT22;4610;50.006;7.490;2022-12-11T01:35:26;-2.80;99.90
9151;DHT22;4610;50.006;7.490;2022-12-11T01:37:53;-2.70;99.90
9151;DHT22;4610;50.006;7.490;2022-12-11T01:40:20;-2.70;99.90
9151;DHT22;4610;50.006;7.490;2022-12-11T01:42:47;-2.70;99.90
9151;DHT22;4610;50.006;7.490;2022-12-11T01:45:31;-2.70;99.90
9151;DHT22;4610;50.006;7.490;2022-12-11T01:48:01;-2.70;99.90
9151;DHT22;4610;50.006;7.490;2022-12-11T01:50:30;-2.80;99.90
9151;DHT22;4610;50.006;7.490;2022-12-11T01:52:59;-2.80;99.90
9151;DHT22;4610;50.006;7.490;2022-12-11T01:55:26;-2.80;99.90
9151;DHT22;4610;50.006;7.490;2022-12-11T01:57:53;-2.80;99.90
9151;DHT22;4610;50.006;7.490;2022-12-11T02:00:20;-2.80;99.90
9151;DHT22;4610;50.006;7.490;2022-12-11T02:02:48;-2.90;99.90
9151;DHT22;4610;50.006;7.490;2022-12-11T02:05:15;-2.80;99.90
9151;DHT22;4610;50.006;7.490;2022-12-11T02:07:45;-2.70;99.90
9151;DHT22;4610;50.006;7.490;2022-12-11T02:10:13;-2.70;99.90
9151;DHT22;4610;50.006;7.490;2022-12-11T02:12:49;-2.60;99.90
9151;DHT22;4610;50.006;7.490;2022-12-11T02:15:24;-2.60;99.90
9151;DHT22;4610;50.006;7.490;2022-12-11T02:18:00;-2.50;99.90
9151;DHT22;4610;50.006;7.490;2022-12-11T02:20:32;-2.50;99.90
9151;DHT22;4610;50.006;7.490;2022-12-11T02:23:18;-2.40;99.90
9151;DHT22;4610;50.006;7.490;2022-12-11T02:25:51;-2.40;99.90
9151;DHT22;4610;50.006;7.490;2022-12-11T02:28:27;-2.40;99.90
9151;DHT22;4610;50.006;7.490;2022-12-11T02:30:58;-2.30;99.90
9151;DHT22;4610;50.006;7.490;2022-12-11T02:33:31;-2.30;99.90
9151;DHT22;4610;50.006;7.490;2022-12-11T02:35:59;-2.30;99.90
9151;DHT22;4610;50.006;7.490;2022-12-11T02:38:30;-2.30;99.90
9151;DHT22;4610;50.006;7.490;2022-12-11T02:40:59;-2.30;99.90
9151;DHT22;4610;50.006;7.490;2022-12-11T02:43:30;-2.30;99.90
9151;DHT22;4610;50.006;7.490;2022-12-11T02:45:58;-2.30;99.90
9151;DHT22;4610;50.006;7.490;2022-12-11T02:48:25;-2.30;99.90
9151;DHT22;4610;50.006;7.490;2022-12-11T02:50:55;-2.30;99.90
9151;DHT22;4610;50.006;7.490;2022-12-11T02:53:26;-2.30;99.90
9151;DHT22;4610;50.006;7.490;2022-12-11T02:56:00;-2.20;99.90
9151;DHT22;4610;50.006;7.490;2022-12-11T02:58:32;-2.20;99.90
9151;DHT22;4610;50.006;7.490;2022-12-11T03:01:00;-2.20;99.90
9151;DHT22;4610;50.006;7.490;2022-12-11T03:03:28;-2.20;99.90
9151;DHT22;4610;50.006;7.490;2022-12-11T03:05:55;-2.20;99.90
9151;DHT22;4610;50.006;7.490;2022-12-11T03:08:22;-2.20;99.90
9151;DHT22;4610;50.006;7.490;2022-12-11T03:10:49;-2.20;99.90
9151;DHT22;4610;50.006;7.490;2022-12-11T03:13:18;-2.20;99.90
9151;DHT22;4610;50.006;7.490;2022-12-11T03:15:58;-2.10;99.90
9151;DHT22;4610;50.006;7.490;2022-12-11T03:18:33;-2.10;99.90
9151;DHT22;4610;50.006;7.490;2022-12-11T03:21:04;-2.00;99.90
9151;DHT22;4610;50.006;7.490;2022-12-11T03:23:38;-2.00;99.90
9151;DHT22;4610;50.006;7.490;2022-12-11T03:26:10;-1.90;99.90
9151;DHT22;4610;50.006;7.490;2022-12-11T03:28:43;-1.90;99.90
9151;DHT22;4610;50.006;7.490;2022-12-11T03:31:14;-1.90;99.90
9151;DHT22;4610;50.006;7.490;2022-12-11T03:33:46;-1.90;99.90
9151;DHT22;4610;50.006;7.490;2022-12-11T03:36:21;-1.90;99.90
9151;DHT22;4610;50.006;7.490;2022-12-11T03:38:51;-1.90;99.90
9151;DHT22;4610;50.006;7.490;2022-12-11T03:41:22;-1.80;99.90
9151;DHT22;4610;50.006;7.490;2022-12-11T03:43:52;-1.80;99.90
9151;DHT22;4610;50.006;7.490;2022-12-11T03:46:23;-1.80;99.90
9151;DHT22;4610;50.006;7.490;2022-12-11T03:48:54;-1.80;99.90
9151;DHT22;4610;50.006;7.490;2022-12-11T03:51:22;-1.90;99.90
9151;DHT22;4610;50.006;7.490;2022-12-11T03:53:50;-1.90;99.90
9151;DHT22;4610;50.006;7.490;2022-12-11T03:56:18;-1.90;99.90
9151;DHT22;4610;50.006;7.490;2022-12-11T03:58:46;-1.90;99.90
9151;DHT22;4610;50.006;7.490;2022-12-11T04:01:12;-1.90;99.90
9151;DHT22;4610;50.006;7.490;2022-12-11T04:03:41;-1.90;99.90
9151;DHT22;4610;50.006;7.490;2022-12-11T04:06:07;-1.90;99.90
9151;DHT22;4610;50.006;7.490;2022-12-11T04:08:34;-1.90;99.90
9151;DHT22;4610;50.006;7.490;2022-12-11T04:11:02;-1.90;99.90
9151;DHT22;4610;50.006;7.490;2022-12-11T04:13:46;-1.80;99.90
9151;DHT22;4610;50.006;7.490;2022-12-11T04:16:33;-1.80;99.90
9151;DHT22;4610;50.006;7.490;2022-12-11T04:19:00;-1.80;99.90
9151;DHT22;4610;50.006;7.490;2022-12-11T04:21:45;-1.70;99.90
9151;DHT22;4610;50.006;7.490;2022-12-11T04:24:29;-1.70;99.90
9151;DHT22;4610;50.006;7.490;2022-12-11T04:26:55;-1.70;99.90
9151;DHT22;4610;50.006;7.490;2022-12-11T04:29:22;-1.60;99.90
9151;DHT22;4610;50.006;7.490;2022-12-11T04:31:49;-1.60;99.90
9151;DHT22;4610;50.006;7.490;2022-12-11T04:34:17;-1.60;99.90
9151;DHT22;4610;50.006;7.490;2022-12-11T04:36:45;-1.60;99.90
9151;DHT22;4610;50.006;7.490;2022-12-11T04:39:11;-1.60;99.90
9151;DHT22;4610;50.006;7.490;2022-12-11T04:41:38;-1.60;99.90
9151;DHT22;4610;50.006;7.490;2022-12-11T04:44:06;-1.60;99.90
9151;DHT22;4610;50.006;7.490;2022-12-11T04:46:33;-1.70;99.90
9151;DHT22;4610;50.006;7.490;2022-12-11T04:49:00;-1.80;99.90
9151;DHT22;4610;50.006;7.490;2022-12-11T04:51:28;-1.80;99.90
9151;DHT22;4610;50.006;7.490;2022-12-11T04:53:56;-1.80;99.90
9151;DHT22;4610;50.006;7.490;2022-12-11T04:56:23;-1.80;99.90
9151;DHT22;4610;50.006;7.490;2022-12-11T04:58:50;-1.80;99.90
9151;DHT22;4610;50.006;7.490;2022-12-11T05:01:19;-1.80;99.90
9151;DHT22;4610;50.006;7.490;2022-12-11T05:03:47;-1.70;99.90
9151;DHT22;4610;50.006;7.490;2022-12-11T05:06:14;-1.60;99.90
9151;DHT22;4610;50.006;7.490;2022-12-11T05:08:43;-1.60;99.90
9151;DHT22;4610;50.006;7.490;2022-12-11T05:11:12;-1.60;99.90
9151;DHT22;4610;50.006;7.490;2022-12-11T05:13:39;-1.70;99.90
9151;DHT22;4610;50.006;7.490;2022-12-11T05:16:08;-1.70;99.90
9151;DHT22;4610;50.006;7.490;2022-12-11T05:18:35;-1.60;99.90
9151;DHT22;4610;50.006;7.490;2022-12-11T05:21:04;-1.60;99.90
9151;DHT22;4610;50.006;7.490;2022-12-11T05:23:31;-1.50;99.90
9151;DHT22;4610;50.006;7.490;2022-12-11T05:26:01;-1.50;99.90
9151;DHT22;4610;50.006;7.490;2022-12-11T05:28:30;-1.50;99.90
9151;DHT22;4610;50.006;7.490;2022-12-11T05:30:58;-1.50;99.90
9151;DHT22;4610;50.006;7.490;2022-12-11T05:33:26;-1.50;99.90
9151;DHT22;4610;50.006;7.490;2022-12-11T05:35:53;-1.50;99.90
9151;DHT22;4610;50.006;7.490;2022-12-11T05:38:20;-2.00;99.90
9151;DHT22;4610;50.006;7.490;2022-12-11T05:40:54;-1.60;99.90
9151;DHT22;4610;50.006;7.490;2022-12-11T05:43:23;-1.70;99.90
9151;DHT22;4610;50.006;7.490;2022-12-11T05:45:50;-1.40;99.90
9151;DHT22;4610;50.006;7.490;2022-12-11T05:48:17;-1.50;99.90
9151;DHT22;4610;50.006;7.490;2022-12-11T05:50:54;-1.40;99.90
9151;DHT22;4610;50.006;7.490;2022-12-11T05:53:21;-1.40;99.90
9151;DHT22;4610;50.006;7.490;2022-12-11T05:55:48;-1.40;99.90
9151;DHT22;4610;50.006;7.490;2022-12-11T05:58:15;-1.50;99.90
9151;DHT22;4610;50.006;7.490;2022-12-11T06:00:43;-1.50;99.90
9151;DHT22;4610;50.006;7.490;2022-12-11T06:03:10;-1.40;99.90
9151;DHT22;4610;50.006;7.490;2022-12-11T06:05:38;-1.50;99.90
9151;DHT22;4610;50.006;7.490;2022-12-11T06:08:05;-1.50;99.90
9151;DHT22;4610;50.006;7.490;2022-12-11T06:10:32;-1.40;99.90
9151;DHT22;4610;50.006;7.490;2022-12-11T06:12:59;-1.40;99.90
9151;DHT22;4610;50.006;7.490;2022-12-11T06:15:26;-1.30;99.90
9151;DHT22;4610;50.006;7.490;2022-12-11T06:17:54;-1.30;99.90
9151;DHT22;4610;50.006;7.490;2022-12-11T06:20:21;-1.30;99.90
9151;DHT22;4610;50.006;7.490;2022-12-11T06:22:48;-1.30;99.90
9151;DHT22;4610;50.006;7.490;2022-12-11T06:25:15;-1.30;99.90
9151;DHT22;4610;50.006;7.490;2022-12-11T06:27:41;-1.30;99.90
9151;DHT22;4610;50.006;7.490;2022-12-11T06:30:09;-1.40;99.90
9151;DHT22;4610;50.006;7.490;2022-12-11T06:32:36;-1.50;99.90
9151;DHT22;4610;50.006;7.490;2022-12-11T06:35:05;-1.40;99.90
9151;DHT22;4610;50.006;7.490;2022-12-11T06:37:34;-1.50;99.90
9151;DHT22;4610;50.006;7.490;2022-12-11T06:40:03;-1.50;99.90
9151;DHT22;4610;50.006;7.490;2022-12-11T06:42:30;-1.40;99.90
9151;DHT22;4610;50.006;7.490;2022-12-11T06:44:57;-1.40;99.90
9151;DHT22;4610;50.006;7.490;2022-12-11T06:47:24;-1.40;99.90
9151;DHT22;4610;50.006;7.490;2022-12-11T06:49:52;-1.40;99.90
9151;DHT22;4610;50.006;7.490;2022-12-11T06:52:21;-1.40;99.90
9151;DHT22;4610;50.006;7.490;2022-12-11T06:54:48;-1.40;99.90
9151;DHT22;4610;50.006;7.490;2022-12-11T06:57:16;-1.40;99.90
9151;DHT22;4610;50.006;7.490;2022-12-11T06:59:44;-1.50;99.90
9151;DHT22;4610;50.006;7.490;2022-12-11T07:02:12;-1.50;99.90
9151;DHT22;4610;50.006;7.490;2022-12-11T07:04:39;-1.60;99.90
9151;DHT22;4610;50.006;7.490;2022-12-11T07:07:06;-1.60;99.90
9151;DHT22;4610;50.006;7.490;2022-12-11T07:09:35;-1.60;99.90
9151;DHT22;4610;50.006;7.490;2022-12-11T07:12:03;-1.70;99.90
9151;DHT22;4610;50.006;7.490;2022-12-11T07:14:31;-1.70;99.90
9151;DHT22;4610;50.006;7.490;2022-12-11T07:16:58;-1.70;99.90
9151;DHT22;4610;50.006;7.490;2022-12-11T07:19:26;-1.70;99.90
9151;DHT22;4610;50.006;7.490;2022-12-11T07:21:52;-1.80;99.90
9151;DHT22;4610;50.006;7.490;2022-12-11T07:24:19;-1.70;99.90
9151;DHT22;4610;50.006;7.490;2022-12-11T07:26:47;-1.70;99.90
9151;DHT22;4610;50.006;7.490;2022-12-11T07:29:14;-1.60;99.90
9151;DHT22;4610;50.006;7.490;2022-12-11T07:31:41;-1.60;99.90
9151;DHT22;4610;50.006;7.490;2022-12-11T07:34:11;-1.60;99.90
9151;DHT22;4610;50.006;7.490;2022-12-11T07:36:38;-1.50;99.90
9151;DHT22;4610;50.006;7.490;2022-12-11T07:39:05;-1.60;99.90
9151;DHT22;4610;50.006;7.490;2022-12-11T07:41:32;-1.50;99.90
9151;DHT22;4610;50.006;7.490;2022-12-11T07:44:01;-1.40;99.90
9151;DHT22;4610;50.006;7.490;2022-12-11T07:46:29;-1.30;99.90
9151;DHT22;4610;50.006;7.490;2022-12-11T07:48:56;-1.20;99.90
9151;DHT22;4610;50.006;7.490;2022-12-11T07:51:26;-1.20;99.90
9151;DHT22;4610;50.006;7.490;2022-12-11T07:53:55;-1.10;99.90
9151;DHT22;4610;50.006;7.490;2022-12-11T07:56:22;-0.90;99.90
9151;DHT22;4610;50.006;7.490;2022-12-11T07:58:49;-0.90;99.90
9151;DHT22;4610;50.006;7.490;2022-12-11T08:01:19;-0.90;99.90
9151;DHT22;4610;50.006;7.490;2022-12-11T08:03:47;-0.80;99.90
9151;DHT22;4610;50.006;7.490;2022-12-11T08:06:15;-0.80;99.90
9151;DHT22;4610;50.006;7.490;2022-12-11T08:08:42;-0.70;99.90
9151;DHT22;4610;50.006;7.490;2022-12-11T08:11:11;-0.60;99.90
9151;DHT22;4610;50.006;7.490;2022-12-11T08:13:39;-0.60;99.90
9151;DHT22;4610;50.006;7.490;2022-12-11T08:16:08;-0.60;99.90
9151;DHT22;4610;50.006;7.490;2022-12-11T08:18:37;-0.60;99.90
9151;DHT22;4610;50.006;7.490;2022-12-11T08:21:05;-0.70;99.90
9151;DHT22;4610;50.006;7.490;2022-12-11T08:23:33;-0.70;99.90
9151;DHT22;4610;50.006;7.490;2022-12-11T08:26:01;-0.60;99.90
9151;DHT22;4610;50.006;7.490;2022-12-11T08:28:29;-0.70;99.90
9151;DHT22;4610;50.006;7.490;2022-12-11T08:30:56;-0.70;99.90
9151;DHT22;4610;50.006;7.490;2022-12-11T08:33:23;-0.70;99.90
9151;DHT22;4610;50.006;7.490;2022-12-11T08:35:51;-0.60;99.90
9151;DHT22;4610;50.006;7.490;2022-12-11T08:38:18;-0.60;99.90
9151;DHT22;4610;50.006;7.490;2022-12-11T08:40:45;-0.60;99.90
9151;DHT22;4610;50.006;7.490;2022-12-11T08:43:12;-0.50;99.90
9151;DHT22;4610;50.006;7.490;2022-12-11T08:45:38;-0.40;99.90
9151;DHT22;4610;50.006;7.490;2022-12-11T08:48:05;-0.30;99.90
9151;DHT22;4610;50.006;7.490;2022-12-11T08:50:33;-0.20;99.90
9151;DHT22;4610;50.006;7.490;2022-12-11T08:53:01;-0.10;99.90
9151;DHT22;4610;50.006;7.490;2022-12-11T08:55:28;-0.10;99.90
9151;DHT22;4610;50.006;7.490;2022-12-11T08:57:55;-0.10;99.90
9151;DHT22;4610;50.006;7.490;2022-12-11T09:00:22;-0.10;99.90
9151;DHT22;4610;50.006;7.490;2022-12-11T09:02:49;0.00;99.90
9151;DHT22;4610;50.006;7.490;2022-12-11T09:05:15;0.00;99.90
9151;DHT22;4610;50.006;7.490;2022-12-11T09:07:42;0.00;99.90
9151;DHT22;4610;50.006;7.490;2022-12-11T09:10:11;-0.10;99.90
9151;DHT22;4610;50.006;7.490;2022-12-11T09:12:37;0.00;99.90
9151;DHT22;4610;50.006;7.490;2022-12-11T09:15:05;0.00;99.90
9151;DHT22;4610;50.006;7.490;2022-12-11T09:17:33;-0.10;99.90
9151;DHT22;4610;50.006;7.490;2022-12-11T09:20:00;0.00;99.90
9151;DHT22;4610;50.006;7.490;2022-12-11T09:22:27;0.00;99.90
9151;DHT22;4610;50.006;7.490;2022-12-11T09:24:54;0.10;99.90
9151;DHT22;4610;50.006;7.490;2022-12-11T09:27:22;0.10;99.90
9151;DHT22;4610;50.006;7.490;2022-12-11T09:29:49;0.10;99.90
9151;DHT22;4610;50.006;7.490;2022-12-11T09:32:16;0.00;99.90
9151;DHT22;4610;50.006;7.490;2022-12-11T09:34:42;0.00;99.90
9151;DHT22;4610;50.006;7.490;2022-12-11T09:37:09;0.00;99.90
9151;DHT22;4610;50.006;7.490;2022-12-11T09:39:36;0.00;99.90
9151;DHT22;4610;50.006;7.490;2022-12-11T09:42:07;-0.10;99.90
9151;DHT22;4610;50.006;7.490;2022-12-11T09:44:41;-0.10;99.90
9151;DHT22;4610;50.006;7.490;2022-12-11T09:47:17;-0.10;99.90
9151;DHT22;4610;50.006;7.490;2022-12-11T09:49:45;-0.10;99.90
9151;DHT22;4610;50.006;7.490;2022-12-11T09:52:16;0.00;99.90
9151;DHT22;4610;50.006;7.490;2022-12-11T09:54:48;0.10;99.90
9151;DHT22;4610;50.006;7.490;2022-12-11T09:57:29;0.20;99.90
9151;DHT22;4610;50.006;7.490;2022-12-11T10:00:19;0.40;99.90
9151;DHT22;4610;50.006;7.490;2022-12-11T10:05:47;0.50;99.90
9151;DHT22;4610;50.006;7.490;2022-12-11T10:08:21;0.50;99.90
9151;DHT22;4610;50.006;7.490;2022-12-11T10:10:53;0.60;99.90
9151;DHT22;4610;50.006;7.490;2022-12-11T10:13:29;0.60;99.90
9151;DHT22;4610;50.006;7.490;2022-12-11T10:16:06;0.70;99.90
9151;DHT22;4610;50.006;7.490;2022-12-11T10:18:37;0.80;99.90
9151;DHT22;4610;50.006;7.490;2022-12-11T10:21:04;0.80;99.90
9151;DHT22;4610;50.006;7.490;2022-12-11T10:23:36;0.70;99.90
9151;DHT22;4610;50.006;7.490;2022-12-11T10:26:06;0.60;99.90
9151;DHT22;4610;50.006;7.490;2022-12-11T10:28:34;0.50;99.90
9151;DHT22;4610;50.006;7.490;2022-12-11T10:31:11;0.50;99.90
9151;DHT22;4610;50.006;7.490;2022-12-11T10:33:50;0.60;99.90
9151;DHT22;4610;50.006;7.490;2022-12-11T10:36:26;0.60;99.90
9151;DHT22;4610;50.006;7.490;2022-12-11T10:38:53;0.60;99.90
9151;DHT22;4610;50.006;7.490;2022-12-11T10:41:22;0.60;99.90
9151;DHT22;4610;50.006;7.490;2022-12-11T10:43:51;0.70;99.90
9151;DHT22;4610;50.006;7.490;2022-12-11T10:46:22;0.80;99.90
9151;DHT22;4610;50.006;7.490;2022-12-11T10:48:51;0.80;99.90
9151;DHT22;4610;50.006;7.490;2022-12-11T10:51:20;0.70;99.90
9151;DHT22;4610;50.006;7.490;2022-12-11T10:53:52;0.80;99.90
9151;DHT22;4610;50.006;7.490;2022-12-11T10:56:25;0.90;99.90
9151;DHT22;4610;50.006;7.490;2022-12-11T10:58:54;1.00;99.90
9151;DHT22;4610;50.006;7.490;2022-12-11T11:01:25;2.00;99.90
9151;DHT22;4610;50.006;7.490;2022-12-11T11:03:56;2.20;99.90
9151;DHT22;4610;50.006;7.490;2022-12-11T11:06:24;1.90;99.90
9151;DHT22;4610;50.006;7.490;2022-12-11T11:08:53;1.60;99.90
9151;DHT22;4610;50.006;7.490;2022-12-11T11:11:24;1.40;99.90
9151;DHT22;4610;50.006;7.490;2022-12-11T11:14:04;1.20;99.90
9151;DHT22;4610;50.006;7.490;2022-12-11T11:16:34;1.10;99.90
9151;DHT22;4610;50.006;7.490;2022-12-11T11:19:02;1.00;99.90
9151;DHT22;4610;50.006;7.490;2022-12-11T11:21:29;0.90;99.90
9151;DHT22;4610;50.006;7.490;2022-12-11T11:23:56;1.30;99.90
9151;DHT22;4610;50.006;7.490;2022-12-11T11:26:23;1.60;99.90
9151;DHT22;4610;50.006;7.490;2022-12-11T11:28:53;1.50;99.90
9151;DHT22;4610;50.006;7.490;2022-12-11T11:31:33;1.30;99.90
9151;DHT22;4610;50.006;7.490;2022-12-11T11:34:04;1.30;99.90
9151;DHT22;4610;50.006;7.490;2022-12-11T11:36:34;1.20;99.90
9151;DHT22;4610;50.006;7.490;2022-12-11T11:39:17;1.10;99.90
9151;DHT22;4610;50.006;7.490;2022-12-11T11:41:50;1.00;99.90
9151;DHT22;4610;50.006;7.490;2022-12-11T11:44:22;1.00;99.90
9151;DHT22;4610;50.006;7.490;2022-12-11T11:46:56;1.00;99.90
9151;DHT22;4610;50.006;7.490;2022-12-11T11:49:37;0.90;99.90
9151;DHT22;4610;50.006;7.490;2022-12-11T11:52:12;0.90;99.90
9151;DHT22;4610;50.006;7.490;2022-12-11T11:54:47;1.00;99.90
9151;DHT22;4610;50.006;7.490;2022-12-11T11:57:22;1.10;99.90
9151;DHT22;4610;50.006;7.490;2022-12-11T11:59:54;1.10;99.90
9151;DHT22;4610;50.006;7.490;2022-12-11T12:02:23;1.00;99.90
9151;DHT22;4610;50.006;7.490;2022-12-11T12:04:52;1.20;99.90
9151;DHT22;4610;50.006;7.490;2022-12-11T12:07:30;1.20;99.90
9151;DHT22;4610;50.006;7.490;2022-12-11T12:10:11;1.10;99.90
9151;DHT22;4610;50.006;7.490;2022-12-11T12:12:44;1.20;99.90
9151;DHT22;4610;50.006;7.490;2022-12-11T12:15:19;1.10;99.90
9151;DHT22;4610;50.006;7.490;2022-12-11T12:17:51;1.10;99.90
9151;DHT22;4610;50.006;7.490;2022-12-11T12:20:25;1.00;99.90
9151;DHT22;4610;50.006;7.490;2022-12-11T12:22:59;1.00;99.90
9151;DHT22;4610;50.006;7.490;2022-12-11T12:25:32;1.10;99.90
9151;DHT22;4610;50.006;7.490;2022-12-11T12:28:09;1.10;99.90
9151;DHT22;4610;50.006;7.490;2022-12-11T12:30:48;1.20;99.90
9151;DHT22;4610;50.006;7.490;2022-12-11T12:33:30;1.20;99.90
9151;DHT22;4610;50.006;7.490;2022-12-11T12:36:10;1.20;99.90
9151;DHT22;4610;50.006;7.490;2022-12-11T12:38:49;1.10;99.90
9151;DHT22;4610;50.006;7.490;2022-12-11T12:41:21;1.10;99.90
9151;DHT22;4610;50.006;7.490;2022-12-11T12:43:59;1.10;99.90
9151;DHT22;4610;50.006;7.490;2022-12-11T12:46:40;1.00;99.90
9151;DHT22;4610;50.006;7.490;2022-12-11T12:49:13;1.10;99.90
9151;DHT22;4610;50.006;7.490;2022-12-11T12:51:42;1.10;99.90
9151;DHT22;4610;50.006;7.490;2022-12-11T12:54:13;1.10;99.90
9151;DHT22;4610;50.006;7.490;2022-12-11T12:56:41;1.20;99.90
9151;DHT22;4610;50.006;7.490;2022-12-11T12:59:19;1.20;99.90
9151;DHT22;4610;50.006;7.490;2022-12-11T13:01:48;1.10;99.90
9151;DHT22;4610;50.006;7.490;2022-12-11T13:04:28;1.10;99.90
9151;DHT22;4610;50.006;7.490;2022-12-11T13:06:57;1.10;99.90
9151;DHT22;4610;50.006;7.490;2022-12-11T13:09:25;1.10;99.90
9151;DHT22;4610;50.006;7.490;2022-12-11T13:11:54;1.10;99.90
9151;DHT22;4610;50.006;7.490;2022-12-11T13:14:26;1.10;99.90
9151;DHT22;4610;50.006;7.490;2022-12-11T13:19:46;1.20;99.90
9151;DHT22;4610;50.006;7.490;2022-12-11T13:22:22;1.20;99.90
9151;DHT22;4610;50.006;7.490;2022-12-11T13:24:56;1.20;99.90
9151;DHT22;4610;50.006;7.490;2022-12-11T13:27:26;1.30;99.90
9151;DHT22;4610;50.006;7.490;2022-12-11T13:30:07;0.90;99.90
9151;DHT22;4610;50.006;7.490;2022-12-11T13:32:53;1.10;99.90
9151;DHT22;4610;50.006;7.490;2022-12-11T13:35:21;1.10;99.90
9151;DHT22;4610;50.006;7.490;2022-12-11T13:37:51;1.10;99.90
9151;DHT22;4610;50.006;7.490;2022-12-11T13:40:21;1.10;99.90
9151;DHT22;4610;50.006;7.490;2022-12-11T13:42:50;1.00;99.90
9151;DHT22;4610;50.006;7.490;2022-12-11T13:45:21;1.00;99.90
9151;DHT22;4610;50.006;7.490;2022-12-11T13:47:49;1.00;99.90
9151;DHT22;4610;50.006;7.490;2022-12-11T13:50:21;1.00;99.90
9151;DHT22;4610;50.006;7.490;2022-12-11T13:52:54;1.00;99.90
9151;DHT22;4610;50.006;7.490;2022-12-11T13:55:28;2.10;99.90
9151;DHT22;4610;50.006;7.490;2022-12-11T13:57:56;2.10;99.90
9151;DHT22;4610;50.006;7.490;2022-12-11T14:00:25;1.90;99.90
9151;DHT22;4610;50.006;7.490;2022-12-11T14:02:54;1.60;99.90
9151;DHT22;4610;50.006;7.490;2022-12-11T14:05:22;1.40;99.90
9151;DHT22;4610;50.006;7.490;2022-12-11T14:07:52;1.30;99.90
9151;DHT22;4610;50.006;7.490;2022-12-11T14:10:24;1.10;99.90
9151;DHT22;4610;50.006;7.490;2022-12-11T14:12:54;1.10;99.90
9151;DHT22;4610;50.006;7.490;2022-12-11T14:15:22;1.10;99.90
9151;DHT22;4610;50.006;7.490;2022-12-11T14:17:49;1.10;99.90
9151;DHT22;4610;50.006;7.490;2022-12-11T14:20:18;1.10;99.90
9151;DHT22;4610;50.006;7.490;2022-12-11T14:22:46;1.00;99.90
9151;DHT22;4610;50.006;7.490;2022-12-11T14:25:19;1.00;99.90
9151;DHT22;4610;50.006;7.490;2022-12-11T14:27:50;0.90;99.90
9151;DHT22;4610;50.006;7.490;2022-12-11T14:30:21;0.90;99.90
9151;DHT22;4610;50.006;7.490;2022-12-11T14:32:49;0.90;99.90
9151;DHT22;4610;50.006;7.490;2022-12-11T14:35:25;0.80;99.90
9151;DHT22;4610;50.006;7.490;2022-12-11T14:37:53;0.80;99.90
9151;DHT22;4610;50.006;7.490;2022-12-11T14:40:25;0.80;99.90
9151;DHT22;4610;50.006;7.490;2022-12-11T14:42:58;0.80;99.90
9151;DHT22;4610;50.006;7.490;2022-12-11T14:45:31;0.70;99.90
9151;DHT22;4610;50.006;7.490;2022-12-11T14:47:59;0.60;99.90
9151;DHT22;4610;50.006;7.490;2022-12-11T14:50:35;0.70;99.90
9151;DHT22;4610;50.006;7.490;2022-12-11T14:53:08;0.70;99.90
9151;DHT22;4610;50.006;7.490;2022-12-11T14:55:37;0.70;99.90
9151;DHT22;4610;50.006;7.490;2022-12-11T14:58:11;0.70;99.90
9151;DHT22;4610;50.006;7.490;2022-12-11T15:00:39;0.70;99.90
9151;DHT22;4610;50.006;7.490;2022-12-11T15:03:20;0.70;99.90
9151;DHT22;4610;50.006;7.490;2022-12-11T15:05:49;0.70;99.90
9151;DHT22;4610;50.006;7.490;2022-12-11T15:08:18;0.70;99.90
9151;DHT22;4610;50.006;7.490;2022-12-11T15:11:00;0.70;99.90
9151;DHT22;4610;50.006;7.490;2022-12-11T15:13:29;0.70;99.90
9151;DHT22;4610;50.006;7.490;2022-12-11T15:15:56;0.70;99.90
9151;DHT22;4610;50.006;7.490;2022-12-11T15:18:27;0.70;99.90
9151;DHT22;4610;50.006;7.490;2022-12-11T15:20:58;0.60;99.90
9151;DHT22;4610;50.006;7.490;2022-12-11T15:23:26;0.60;99.90
9151;DHT22;4610;50.006;7.490;2022-12-11T15:25:55;0.50;99.90
9151;DHT22;4610;50.006;7.490;2022-12-11T15:28:25;0.40;99.90
9151;DHT22;4610;50.006;7.490;2022-12-11T15:30:57;0.30;99.90
9151;DHT22;4610;50.006;7.490;2022-12-11T15:33:24;0.20;99.90
9151;DHT22;4610;50.006;7.490;2022-12-11T15:35:54;0.10;99.90
9151;DHT22;4610;50.006;7.490;2022-12-11T15:38:29;0.20;99.90
9151;DHT22;4610;50.006;7.490;2022-12-11T15:40:57;0.10;99.90
9151;DHT22;4610;50.006;7.490;2022-12-11T15:43:25;0.10;99.90
9151;DHT22;4610;50.006;7.490;2022-12-11T15:45:52;0.10;99.90
9151;DHT22;4610;50.006;7.490;2022-12-11T15:48:20;0.10;99.90
9151;DHT22;4610;50.006;7.490;2022-12-11T15:50:47;0.10;99.90
9151;DHT22;4610;50.006;7.490;2022-12-11T15:53:14;0.20;99.90
9151;DHT22;4610;50.006;7.490;2022-12-11T15:55:41;0.20;99.90
9151;DHT22;4610;50.006;7.490;2022-12-11T15:58:13;0.20;99.90
9151;DHT22;4610;50.006;7.490;2022-12-11T16:00:40;0.20;99.90
9151;DHT22;4610;50.006;7.490;2022-12-11T16:03:10;0.20;99.90
9151;DHT22;4610;50.006;7.490;2022-12-11T16:05:38;0.20;99.90
9151;DHT22;4610;50.006;7.490;2022-12-11T16:08:05;0.20;99.90
9151;DHT22;4610;50.006;7.490;2022-12-11T16:10:32;0.10;99.90
9151;DHT22;4610;50.006;7.490;2022-12-11T16:12:59;0.00;99.90
9151;DHT22;4610;50.006;7.490;2022-12-11T16:15:28;0.10;99.90
9151;DHT22;4610;50.006;7.490;2022-12-11T16:18:00;0.00;99.90
9151;DHT22;4610;50.006;7.490;2022-12-11T16:20:28;0.00;99.90
9151;DHT22;4610;50.006;7.490;2022-12-11T16:22:57;-0.10;99.90
9151;DHT22;4610;50.006;7.490;2022-12-11T16:25:24;0.00;99.90
9151;DHT22;4610;50.006;7.490;2022-12-11T16:27:54;0.00;99.90
9151;DHT22;4610;50.006;7.490;2022-12-11T16:30:20;0.00;99.90
9151;DHT22;4610;50.006;7.490;2022-12-11T16:32:48;0.00;99.90